sensor_id;sensor_type;location;lat;lon;timestamp;P1;durP1;ratioP1;P2;durP2;ratioP2
41759;SDS011;27438;53.396;-6.670;2022-07-29T00:01:57;7.15;;;2.20;;
41759;SDS011;27438;53.396;-6.670;2022-07-29T00:04:22;4.47;;;2.05;;
41759;SDS011;27438;53.396;-6.670;2022-07-29T00:06:48;2.97;;;2.00;;
41759;SDS011;27438;53.396;-6.670;2022-07-29T00:09:14;8.38;;;2.75;;
41759;SDS011;27438;53.396;-6.670;2022-07-29T00:11:40;3.22;;;2.35;;
41759;SDS011;27438;53.396;-6.670;2022-07-29T00:14:05;9.23;;;2.25;;
41759;SDS011;27438;53.396;-6.670;2022-07-29T00:16:31;4.28;;;2.40;;
41759;SDS011;27438;53.396;-6.670;2022-07-29T00:18:57;2.83;;;2.45;;
41759;SDS011;27438;53.396;-6.670;2022-07-29T00:21:22;4.07;;;2.40;;
41759;SDS011;27438;53.396;-6.670;2022-07-29T00:23:48;4.47;;;2.67;;
41759;SDS011;27438;53.396;-6.670;2022-07-29T00:26:14;3.80;;;2.67;;
41759;SDS011;27438;53.396;-6.670;2022-07-29T00:28:40;3.38;;;2.78;;
41759;SDS011;27438;53.396;-6.670;2022-07-29T00:31:05;3.60;;;2.08;;
41759;SDS011;27438;53.396;-6.670;2022-07-29T00:33:32;5.80;;;3.00;;
41759;SDS011;27438;53.396;-6.670;2022-07-29T00:35:58;3.72;;;2.38;;
41759;SDS011;27438;53.396;-6.670;2022-07-29T00:38:24;4.53;;;2.60;;
41759;SDS011;27438;53.396;-6.670;2022-07-29T00:40:50;3.72;;;2.78;;
41759;SDS011;27438;53.396;-6.670;2022-07-29T00:43:16;5.50;;;2.63;;
41759;SDS011;27438;53.396;-6.670;2022-07-29T00:45:42;2.50;;;1.98;;
41759;SDS011;27438;53.396;-6.670;2022-07-29T00:48:09;7.13;;;2.72;;
41759;SDS011;27438;53.396;-6.670;2022-07-29T00:50:35;3.50;;;2.30;;
41759;SDS011;27438;53.396;-6.670;2022-07-29T00:53:02;4.82;;;2.60;;
41759;SDS011;27438;53.396;-6.670;2022-07-29T00:55:29;2.78;;;2.00;;
41759;SDS011;27438;53.396;-6.670;2022-07-29T00:57:55;2.30;;;1.77;;
41759;SDS011;27438;53.396;-6.670;2022-07-29T01:00:24;3.30;;;1.83;;
41759;SDS011;27438;53.396;-6.670;2022-07-29T01:02:51;3.67;;;2.17;;
41759;SDS011;27438;53.396;-6.670;2022-07-29T01:05:18;3.75;;;2.00;;
41759;SDS011;27438;53.396;-6.670;2022-07-29T01:07:47;5.03;;;2.42;;
41759;SDS011;27438;53.396;-6.670;2022-07-29T01:10:16;8.77;;;2.35;;
41759;SDS011;27438;53.396;-6.670;2022-07-29T01:12:43;2.85;;;1.88;;
41759;SDS011;27438;53.396;-6.670;2022-07-29T01:15:11;2.83;;;1.95;;
41759;SDS011;27438;53.396;-6.670;2022-07-29T01:34:21;6.47;;;2.42;;
41759;SDS011;27438;53.396;-6.670;2022-07-29T01:39:52;4.63;;;1.97;;
41759;SDS011;27438;53.396;-6.670;2022-07-29T01:47:39;6.53;;;2.20;;
41759;SDS011;27438;53.396;-6.670;2022-07-29T01:50:17;6.05;;;2.85;;
41759;SDS011;27438;53.396;-6.670;2022-07-29T01:55:28;7.45;;;4.25;;
41759;SDS011;27438;53.396;-6.670;2022-07-29T01:57:57;7.32;;;4.15;;
41759;SDS011;27438;53.396;-6.670;2022-07-29T02:00:26;5.50;;;3.63;;
41759;SDS011;27438;53.396;-6.670;2022-07-29T02:02:54;5.97;;;4.38;;
41759;SDS011;27438;53.396;-6.670;2022-07-29T02:05:21;6.50;;;3.20;;
41759;SDS011;27438;53.396;-6.670;2022-07-29T02:07:48;4.93;;;3.60;;
41759;SDS011;27438;53.396;-6.670;2022-07-29T02:10:19;5.32;;;4.00;;
41759;SDS011;27438;53.396;-6.670;2022-07-29T02:12:48;6.30;;;4.00;;
41759;SDS011;27438;53.396;-6.670;2022-07-29T02:15:15;6.22;;;3.95;;
41759;SDS011;27438;53.396;-6.670;2022-07-29T02:18:05;6.57;;;3.30;;
41759;SDS011;27438;53.396;-6.670;2022-07-29T02:20:33;4.82;;;3.25;;
41759;SDS011;27438;53.396;-6.670;2022-07-29T02:23:00;5.40;;;3.88;;
41759;SDS011;27438;53.396;-6.670;2022-07-29T02:25:28;7.22;;;4.25;;
41759;SDS011;27438;53.396;-6.670;2022-07-29T02:27:54;6.00;;;3.88;;
41759;SDS011;27438;53.396;-6.670;2022-07-29T02:30:21;4.13;;;3.72;;
41759;SDS011;27438;53.396;-6.670;2022-07-29T02:32:48;5.35;;;3.50;;
41759;SDS011;27438;53.396;-6.670;2022-07-29T02:35:16;6.50;;;3.40;;
41759;SDS011;27438;53.396;-6.670;2022-07-29T02:37:43;4.05;;;3.60;;
41759;SDS011;27438;53.396;-6.670;2022-07-29T02:40:11;5.40;;;3.55;;
41759;SDS011;27438;53.396;-6.670;2022-07-29T02:42:41;4.72;;;3.42;;
41759;SDS011;27438;53.396;-6.670;2022-07-29T02:45:09;3.78;;;3.45;;
41759;SDS011;27438;53.396;-6.670;2022-07-29T02:47:40;7.63;;;3.65;;
41759;SDS011;27438;53.396;-6.670;2022-07-29T02:52:39;7.38;;;4.05;;
41759;SDS011;27438;53.396;-6.670;2022-07-29T02:55:16;5.35;;;3.15;;
41759;SDS011;27438;53.396;-6.670;2022-07-29T02:57:47;4.70;;;3.90;;
41759;SDS011;27438;53.396;-6.670;2022-07-29T03:00:16;5.57;;;4.38;;
41759;SDS011;27438;53.396;-6.670;2022-07-29T03:02:43;7.63;;;4.28;;
41759;SDS011;27438;53.396;-6.670;2022-07-29T03:05:15;6.53;;;4.32;;
41759;SDS011;27438;53.396;-6.670;2022-07-29T03:07:49;6.30;;;4.90;;
41759;SDS011;27438;53.396;-6.670;2022-07-29T03:10:20;5.53;;;4.90;;
41759;SDS011;27438;53.396;-6.670;2022-07-29T03:12:47;4.65;;;3.92;;
41759;SDS011;27438;53.396;-6.670;2022-07-29T03:15:13;5.82;;;4.63;;
41759;SDS011;27438;53.396;-6.670;2022-07-29T03:17:39;6.90;;;5.03;;
41759;SDS011;27438;53.396;-6.670;2022-07-29T03:20:07;8.15;;;4.78;;
41759;SDS011;27438;53.396;-6.670;2022-07-29T03:22:38;7.05;;;4.93;;
41759;SDS011;27438;53.396;-6.670;2022-07-29T03:25:12;6.15;;;4.70;;
41759;SDS011;27438;53.396;-6.670;2022-07-29T03:27:40;8.93;;;7.28;;
41759;SDS011;27438;53.396;-6.670;2022-07-29T03:30:07;8.68;;;5.75;;
41759;SDS011;27438;53.396;-6.670;2022-07-29T03:32:34;5.68;;;5.07;;
41759;SDS011;27438;53.396;-6.670;2022-07-29T03:35:00;7.30;;;5.55;;
41759;SDS011;27438;53.396;-6.670;2022-07-29T03:37:26;9.90;;;6.65;;
41759;SDS011;27438;53.396;-6.670;2022-07-29T03:39:52;18.48;;;10.27;;
41759;SDS011;27438;53.396;-6.670;2022-07-29T03:42:22;8.38;;;6.68;;
41759;SDS011;27438;53.396;-6.670;2022-07-29T03:44:50;9.63;;;7.43;;
41759;SDS011;27438;53.396;-6.670;2022-07-29T03:47:18;6.72;;;5.90;;
41759;SDS011;27438;53.396;-6.670;2022-07-29T03:49:48;7.95;;;6.43;;
41759;SDS011;27438;53.396;-6.670;2022-07-29T03:52:16;13.75;;;8.93;;
41759;SDS011;27438;53.396;-6.670;2022-07-29T03:54:42;10.90;;;7.80;;
41759;SDS011;27438;53.396;-6.670;2022-07-29T03:57:09;10.15;;;7.05;;
41759;SDS011;27438;53.396;-6.670;2022-07-29T03:59:36;9.55;;;6.78;;
41759;SDS011;27438;53.396;-6.670;2022-07-29T04:02:04;9.90;;;6.68;;
41759;SDS011;27438;53.396;-6.670;2022-07-29T04:04:34;13.73;;;8.57;;
41759;SDS011;27438;53.396;-6.670;2022-07-29T04:07:01;12.63;;;9.02;;
41759;SDS011;27438;53.396;-6.670;2022-07-29T04:09:27;8.05;;;6.30;;
41759;SDS011;27438;53.396;-6.670;2022-07-29T04:11:52;14.75;;;8.77;;
41759;SDS011;27438;53.396;-6.670;2022-07-29T04:14:18;16.60;;;9.43;;
41759;SDS011;27438;53.396;-6.670;2022-07-29T04:16:45;7.45;;;6.75;;
41759;SDS011;27438;53.396;-6.670;2022-07-29T04:19:11;8.75;;;6.97;;
41759;SDS011;27438;53.396;-6.670;2022-07-29T04:21:40;9.50;;;6.65;;
41759;SDS011;27438;53.396;-6.670;2022-07-29T04:24:06;11.55;;;6.63;;
41759;SDS011;27438;53.396;-6.670;2022-07-29T04:26:33;8.98;;;6.38;;
41759;SDS011;27438;53.396;-6.670;2022-07-29T04:28:59;16.70;;;11.45;;
41759;SDS011;27438;53.396;-6.670;2022-07-29T04:31:25;10.10;;;8.52;;
41759;SDS011;27438;53.396;-6.670;2022-07-29T04:33:51;10.13;;;7.15;;
41759;SDS011;27438;53.396;-6.670;2022-07-29T04:36:17;11.05;;;7.75;;
41759;SDS011;27438;53.396;-6.670;2022-07-29T04:38:43;9.05;;;7.25;;
41759;SDS011;27438;53.396;-6.670;2022-07-29T04:41:08;12.18;;;7.97;;
41759;SDS011;27438;53.396;-6.670;2022-07-29T04:43:34;9.00;;;7.40;;
41759;SDS011;27438;53.396;-6.670;2022-07-29T04:46:01;8.13;;;6.90;;
41759;SDS011;27438;53.396;-6.670;2022-07-29T04:48:27;15.20;;;10.35;;
41759;SDS011;27438;53.396;-6.670;2022-07-29T04:50:53;12.85;;;8.52;;
41759;SDS011;27438;53.396;-6.670;2022-07-29T04:53:19;10.00;;;7.60;;
41759;SDS011;27438;53.396;-6.670;2022-07-29T04:55:45;8.02;;;6.50;;
41759;SDS011;27438;53.396;-6.670;2022-07-29T04:58:10;18.00;;;9.80;;
41759;SDS011;27438;53.396;-6.670;2022-07-29T05:00:36;13.85;;;10.07;;
41759;SDS011;27438;53.396;-6.670;2022-07-29T05:03:03;9.55;;;8.10;;
41759;SDS011;27438;53.396;-6.670;2022-07-29T05:05:29;14.05;;;10.05;;
41759;SDS011;27438;53.396;-6.670;2022-07-29T05:07:54;15.13;;;9.23;;
41759;SDS011;27438;53.396;-6.670;2022-07-29T05:10:20;10.00;;;8.05;;
41759;SDS011;27438;53.396;-6.670;2022-07-29T05:12:46;9.50;;;6.95;;
41759;SDS011;27438;53.396;-6.670;2022-07-29T05:15:12;7.85;;;6.80;;
41759;SDS011;27438;53.396;-6.670;2022-07-29T05:17:37;12.02;;;9.55;;
41759;SDS011;27438;53.396;-6.670;2022-07-29T05:20:04;9.25;;;6.90;;
41759;SDS011;27438;53.396;-6.670;2022-07-29T05:22:30;11.77;;;7.78;;
41759;SDS011;27438;53.396;-6.670;2022-07-29T05:24:56;9.30;;;7.18;;
41759;SDS011;27438;53.396;-6.670;2022-07-29T05:27:22;11.77;;;8.32;;
41759;SDS011;27438;53.396;-6.670;2022-07-29T05:29:48;10.02;;;6.38;;
41759;SDS011;27438;53.396;-6.670;2022-07-29T05:32:13;12.60;;;6.78;;
41759;SDS011;27438;53.396;-6.670;2022-07-29T05:34:40;16.17;;;10.32;;
41759;SDS011;27438;53.396;-6.670;2022-07-29T05:37:06;8.82;;;6.55;;
41759;SDS011;27438;53.396;-6.670;2022-07-29T05:39:31;10.00;;;7.43;;
41759;SDS011;27438;53.396;-6.670;2022-07-29T05:41:57;11.13;;;7.18;;
41759;SDS011;27438;53.396;-6.670;2022-07-29T05:44:23;15.60;;;9.75;;
41759;SDS011;27438;53.396;-6.670;2022-07-29T05:46:48;12.55;;;6.72;;
41759;SDS011;27438;53.396;-6.670;2022-07-29T05:49:14;9.60;;;7.00;;
41759;SDS011;27438;53.396;-6.670;2022-07-29T05:51:40;10.60;;;7.60;;
41759;SDS011;27438;53.396;-6.670;2022-07-29T05:54:06;11.30;;;7.90;;
41759;SDS011;27438;53.396;-6.670;2022-07-29T05:56:31;11.55;;;6.38;;
41759;SDS011;27438;53.396;-6.670;2022-07-29T05:58:57;11.90;;;7.45;;
41759;SDS011;27438;53.396;-6.670;2022-07-29T06:01:23;8.73;;;6.85;;
41759;SDS011;27438;53.396;-6.670;2022-07-29T06:03:49;7.65;;;6.30;;
41759;SDS011;27438;53.396;-6.670;2022-07-29T06:06:14;12.07;;;7.93;;
41759;SDS011;27438;53.396;-6.670;2022-07-29T06:08:40;8.43;;;6.05;;
41759;SDS011;27438;53.396;-6.670;2022-07-29T06:11:06;6.47;;;5.60;;
41759;SDS011;27438;53.396;-6.670;2022-07-29T06:13:33;8.93;;;6.68;;
41759;SDS011;27438;53.396;-6.670;2022-07-29T06:15:59;12.90;;;7.45;;
41759;SDS011;27438;53.396;-6.670;2022-07-29T06:18:25;9.68;;;7.80;;
41759;SDS011;27438;53.396;-6.670;2022-07-29T06:20:52;6.78;;;6.03;;
41759;SDS011;27438;53.396;-6.670;2022-07-29T06:23:18;10.75;;;5.97;;
41759;SDS011;27438;53.396;-6.670;2022-07-29T06:25:45;7.05;;;4.93;;
41759;SDS011;27438;53.396;-6.670;2022-07-29T06:28:11;6.85;;;5.82;;
41759;SDS011;27438;53.396;-6.670;2022-07-29T06:30:37;7.05;;;5.47;;
41759;SDS011;27438;53.396;-6.670;2022-07-29T06:33:04;11.77;;;7.50;;
41759;SDS011;27438;53.396;-6.670;2022-07-29T06:35:29;9.13;;;5.30;;
41759;SDS011;27438;53.396;-6.670;2022-07-29T06:37:57;5.50;;;4.88;;
41759;SDS011;27438;53.396;-6.670;2022-07-29T06:40:23;7.32;;;5.18;;
41759;SDS011;27438;53.396;-6.670;2022-07-29T06:43:07;6.47;;;5.07;;
41759;SDS011;27438;53.396;-6.670;2022-07-29T06:45:33;9.43;;;4.63;;
41759;SDS011;27438;53.396;-6.670;2022-07-29T06:47:59;7.10;;;4.57;;
41759;SDS011;27438;53.396;-6.670;2022-07-29T06:50:25;6.82;;;4.97;;
41759;SDS011;27438;53.396;-6.670;2022-07-29T06:52:51;10.82;;;4.57;;
41759;SDS011;27438;53.396;-6.670;2022-07-29T06:55:17;7.38;;;4.97;;
41759;SDS011;27438;53.396;-6.670;2022-07-29T06:57:44;8.38;;;4.57;;
41759;SDS011;27438;53.396;-6.670;2022-07-29T07:00:11;7.10;;;5.03;;
41759;SDS011;27438;53.396;-6.670;2022-07-29T07:02:38;5.82;;;4.70;;
41759;SDS011;27438;53.396;-6.670;2022-07-29T07:05:03;8.27;;;5.00;;
41759;SDS011;27438;53.396;-6.670;2022-07-29T07:07:30;10.20;;;5.10;;
41759;SDS011;27438;53.396;-6.670;2022-07-29T07:09:56;7.50;;;4.68;;
41759;SDS011;27438;53.396;-6.670;2022-07-29T07:12:22;6.97;;;5.65;;
41759;SDS011;27438;53.396;-6.670;2022-07-29T07:14:47;5.32;;;4.78;;
41759;SDS011;27438;53.396;-6.670;2022-07-29T07:17:13;8.68;;;4.78;;
41759;SDS011;27438;53.396;-6.670;2022-07-29T07:19:39;8.13;;;4.68;;
41759;SDS011;27438;53.396;-6.670;2022-07-29T07:22:05;5.15;;;4.70;;
41759;SDS011;27438;53.396;-6.670;2022-07-29T07:24:30;6.50;;;4.55;;
41759;SDS011;27438;53.396;-6.670;2022-07-29T07:26:56;7.07;;;5.05;;
41759;SDS011;27438;53.396;-6.670;2022-07-29T07:29:22;6.38;;;4.80;;
41759;SDS011;27438;53.396;-6.670;2022-07-29T07:31:48;10.25;;;5.40;;
41759;SDS011;27438;53.396;-6.670;2022-07-29T07:34:13;7.90;;;4.47;;
41759;SDS011;27438;53.396;-6.670;2022-07-29T07:36:39;5.15;;;4.50;;
41759;SDS011;27438;53.396;-6.670;2022-07-29T07:39:05;8.32;;;4.97;;
41759;SDS011;27438;53.396;-6.670;2022-07-29T07:41:31;6.85;;;4.68;;
41759;SDS011;27438;53.396;-6.670;2022-07-29T07:43:57;7.95;;;4.75;;
41759;SDS011;27438;53.396;-6.670;2022-07-29T07:46:22;6.57;;;4.65;;
41759;SDS011;27438;53.396;-6.670;2022-07-29T07:48:48;7.30;;;4.75;;
41759;SDS011;27438;53.396;-6.670;2022-07-29T07:51:14;11.00;;;5.47;;
41759;SDS011;27438;53.396;-6.670;2022-07-29T07:53:39;5.68;;;4.78;;
41759;SDS011;27438;53.396;-6.670;2022-07-29T07:56:05;10.45;;;5.28;;
41759;SDS011;27438;53.396;-6.670;2022-07-29T07:58:32;7.53;;;3.50;;
41759;SDS011;27438;53.396;-6.670;2022-07-29T08:00:58;54.67;;;10.45;;
41759;SDS011;27438;53.396;-6.670;2022-07-29T08:03:23;13.57;;;4.90;;
41759;SDS011;27438;53.396;-6.670;2022-07-29T08:05:49;13.32;;;5.32;;
41759;SDS011;27438;53.396;-6.670;2022-07-29T08:08:16;42.88;;;8.35;;
41759;SDS011;27438;53.396;-6.670;2022-07-29T08:10:42;7.78;;;4.60;;
41759;SDS011;27438;53.396;-6.670;2022-07-29T08:13:17;10.43;;;4.40;;
41759;SDS011;27438;53.396;-6.670;2022-07-29T08:15:44;6.50;;;4.13;;
41759;SDS011;27438;53.396;-6.670;2022-07-29T08:18:11;5.05;;;3.70;;
41759;SDS011;27438;53.396;-6.670;2022-07-29T08:20:37;4.65;;;3.70;;
41759;SDS011;27438;53.396;-6.670;2022-07-29T08:23:04;5.28;;;3.55;;
41759;SDS011;27438;53.396;-6.670;2022-07-29T08:25:37;5.32;;;3.25;;
41759;SDS011;27438;53.396;-6.670;2022-07-29T08:28:04;6.25;;;3.08;;
41759;SDS011;27438;53.396;-6.670;2022-07-29T08:30:30;3.38;;;2.63;;
41759;SDS011;27438;53.396;-6.670;2022-07-29T08:32:57;8.63;;;2.40;;
41759;SDS011;27438;53.396;-6.670;2022-07-29T08:35:23;47.55;;;7.30;;
41759;SDS011;27438;53.396;-6.670;2022-07-29T08:37:49;2.92;;;2.28;;
41759;SDS011;27438;53.396;-6.670;2022-07-29T08:40:16;100.75;;;13.63;;
41759;SDS011;27438;53.396;-6.670;2022-07-29T08:42:42;17.88;;;9.05;;
41759;SDS011;27438;53.396;-6.670;2022-07-29T08:45:08;39.58;;;5.82;;
41759;SDS011;27438;53.396;-6.670;2022-07-29T08:47:34;27.30;;;3.80;;
41759;SDS011;27438;53.396;-6.670;2022-07-29T08:50:04;4.72;;;1.67;;
41759;SDS011;27438;53.396;-6.670;2022-07-29T08:52:31;28.08;;;4.05;;
41759;SDS011;27438;53.396;-6.670;2022-07-29T08:55:01;35.58;;;5.78;;
41759;SDS011;27438;53.396;-6.670;2022-07-29T08:57:27;3.22;;;1.10;;
41759;SDS011;27438;53.396;-6.670;2022-07-29T08:59:53;2.42;;;1.45;;
41759;SDS011;27438;53.396;-6.670;2022-07-29T09:02:23;2.42;;;1.50;;
41759;SDS011;27438;53.396;-6.670;2022-07-29T09:04:50;5.45;;;2.35;;
41759;SDS011;27438;53.396;-6.670;2022-07-29T09:07:17;2.38;;;1.55;;
41759;SDS011;27438;53.396;-6.670;2022-07-29T09:09:43;2.92;;;1.27;;
41759;SDS011;27438;53.396;-6.670;2022-07-29T09:12:10;1.80;;;1.13;;
41759;SDS011;27438;53.396;-6.670;2022-07-29T09:14:39;3.10;;;1.27;;
41759;SDS011;27438;53.396;-6.670;2022-07-29T09:17:05;3.03;;;1.23;;
41759;SDS011;27438;53.396;-6.670;2022-07-29T09:19:35;2.90;;;1.50;;
41759;SDS011;27438;53.396;-6.670;2022-07-29T09:22:06;5.45;;;1.50;;
41759;SDS011;27438;53.396;-6.670;2022-07-29T09:27:00;5.03;;;2.53;;
41759;SDS011;27438;53.396;-6.670;2022-07-29T09:29:26;3.58;;;1.60;;
41759;SDS011;27438;53.396;-6.670;2022-07-29T09:31:53;6.05;;;1.40;;
41759;SDS011;27438;53.396;-6.670;2022-07-29T09:34:24;2.40;;;1.50;;
41759;SDS011;27438;53.396;-6.670;2022-07-29T09:36:51;1.73;;;1.13;;
41759;SDS011;27438;53.396;-6.670;2022-07-29T09:39:34;8.00;;;2.03;;
41759;SDS011;27438;53.396;-6.670;2022-07-29T09:42:13;5.47;;;1.58;;
41759;SDS011;27438;53.396;-6.670;2022-07-29T09:44:51;1.77;;;1.40;;
41759;SDS011;27438;53.396;-6.670;2022-07-29T09:47:18;3.10;;;1.10;;
41759;SDS011;27438;53.396;-6.670;2022-07-29T09:52:20;22.40;;;4.05;;
41759;SDS011;27438;53.396;-6.670;2022-07-29T09:54:46;3.70;;;1.20;;
41759;SDS011;27438;53.396;-6.670;2022-07-29T10:02:35;1.85;;;1.02;;
41759;SDS011;27438;53.396;-6.670;2022-07-29T10:05:03;1.40;;;0.90;;
41759;SDS011;27438;53.396;-6.670;2022-07-29T10:07:44;2.70;;;0.90;;
41759;SDS011;27438;53.396;-6.670;2022-07-29T10:10:18;3.67;;;0.88;;
41759;SDS011;27438;53.396;-6.670;2022-07-29T10:12:52;1.55;;;0.90;;
41759;SDS011;27438;53.396;-6.670;2022-07-29T10:15:23;3.55;;;1.33;;
41759;SDS011;27438;53.396;-6.670;2022-07-29T10:17:51;1.88;;;0.95;;
41759;SDS011;27438;53.396;-6.670;2022-07-29T10:20:18;1.45;;;0.90;;
41759;SDS011;27438;53.396;-6.670;2022-07-29T10:22:44;10.48;;;2.25;;
41759;SDS011;27438;53.396;-6.670;2022-07-29T10:25:12;3.90;;;1.80;;
41759;SDS011;27438;53.396;-6.670;2022-07-29T10:27:40;1.60;;;0.90;;
41759;SDS011;27438;53.396;-6.670;2022-07-29T10:30:06;1.80;;;0.80;;
41759;SDS011;27438;53.396;-6.670;2022-07-29T10:32:40;3.88;;;0.80;;
41759;SDS011;27438;53.396;-6.670;2022-07-29T10:35:26;1.20;;;1.08;;
41759;SDS011;27438;53.396;-6.670;2022-07-29T10:38:07;6.30;;;0.88;;
41759;SDS011;27438;53.396;-6.670;2022-07-29T10:40:54;3.95;;;1.05;;
41759;SDS011;27438;53.396;-6.670;2022-07-29T10:43:50;3.97;;;1.65;;
41759;SDS011;27438;53.396;-6.670;2022-07-29T10:46:19;3.55;;;1.15;;
41759;SDS011;27438;53.396;-6.670;2022-07-29T10:49:04;3.42;;;1.40;;
41759;SDS011;27438;53.396;-6.670;2022-07-29T10:54:18;3.50;;;1.20;;
41759;SDS011;27438;53.396;-6.670;2022-07-29T10:57:12;14.93;;;2.20;;
41759;SDS011;27438;53.396;-6.670;2022-07-29T11:00:28;2.55;;;1.33;;
41759;SDS011;27438;53.396;-6.670;2022-07-29T11:05:07;1.40;;;1.30;;
41759;SDS011;27438;53.396;-6.670;2022-07-29T11:07:35;1.45;;;0.95;;
41759;SDS011;27438;53.396;-6.670;2022-07-29T11:15:06;3.33;;;0.73;;
41759;SDS011;27438;53.396;-6.670;2022-07-29T11:31:38;2.15;;;1.20;;
41759;SDS011;27438;53.396;-6.670;2022-07-29T11:34:25;0.90;;;0.90;;
41759;SDS011;27438;53.396;-6.670;2022-07-29T11:39:41;1.88;;;0.73;;
41759;SDS011;27438;53.396;-6.670;2022-07-29T11:47:30;0.70;;;0.70;;
41759;SDS011;27438;53.396;-6.670;2022-07-29T11:50:10;2.17;;;0.88;;
41759;SDS011;27438;53.396;-6.670;2022-07-29T11:52:43;1.83;;;0.80;;
41759;SDS011;27438;53.396;-6.670;2022-07-29T11:55:21;1.45;;;0.90;;
41759;SDS011;27438;53.396;-6.670;2022-07-29T11:57:53;1.52;;;0.93;;
41759;SDS011;27438;53.396;-6.670;2022-07-29T12:00:23;2.75;;;0.80;;
41759;SDS011;27438;53.396;-6.670;2022-07-29T12:02:51;9.20;;;1.00;;
41759;SDS011;27438;53.396;-6.670;2022-07-29T12:05:17;1.52;;;1.10;;
41759;SDS011;27438;53.396;-6.670;2022-07-29T12:07:44;2.28;;;0.90;;
41759;SDS011;27438;53.396;-6.670;2022-07-29T12:10:09;6.15;;;1.15;;
41759;SDS011;27438;53.396;-6.670;2022-07-29T12:12:35;2.47;;;1.77;;
41759;SDS011;27438;53.396;-6.670;2022-07-29T12:17:56;4.30;;;2.10;;
41759;SDS011;27438;53.396;-6.670;2022-07-29T12:20:25;2.30;;;2.20;;
41759;SDS011;27438;53.396;-6.670;2022-07-29T12:22:53;2.65;;;2.45;;
41759;SDS011;27438;53.396;-6.670;2022-07-29T12:25:20;2.17;;;1.70;;
41759;SDS011;27438;53.396;-6.670;2022-07-29T12:27:47;2.00;;;0.88;;
41759;SDS011;27438;53.396;-6.670;2022-07-29T12:30:22;4.75;;;3.60;;
41759;SDS011;27438;53.396;-6.670;2022-07-29T12:32:48;36.22;;;22.23;;
41759;SDS011;27438;53.396;-6.670;2022-07-29T12:35:14;1.35;;;0.80;;
41759;SDS011;27438;53.396;-6.670;2022-07-29T12:37:45;0.82;;;0.82;;
41759;SDS011;27438;53.396;-6.670;2022-07-29T12:40:16;3.67;;;2.53;;
41759;SDS011;27438;53.396;-6.670;2022-07-29T12:45:36;1.17;;;0.82;;
41759;SDS011;27438;53.396;-6.670;2022-07-29T12:48:02;2.85;;;1.23;;
41759;SDS011;27438;53.396;-6.670;2022-07-29T12:50:28;1.75;;;1.25;;
41759;SDS011;27438;53.396;-6.670;2022-07-29T12:53:07;2.55;;;1.40;;
41759;SDS011;27438;53.396;-6.670;2022-07-29T12:55:41;6.20;;;1.52;;
41759;SDS011;27438;53.396;-6.670;2022-07-29T12:58:09;2.38;;;0.70;;
41759;SDS011;27438;53.396;-6.670;2022-07-29T13:00:35;1.75;;;0.90;;
41759;SDS011;27438;53.396;-6.670;2022-07-29T13:03:01;1.10;;;1.08;;
41759;SDS011;27438;53.396;-6.670;2022-07-29T13:05:42;1.50;;;1.40;;
41759;SDS011;27438;53.396;-6.670;2022-07-29T13:08:16;1.05;;;0.90;;
41759;SDS011;27438;53.396;-6.670;2022-07-29T13:10:44;2.28;;;0.90;;
41759;SDS011;27438;53.396;-6.670;2022-07-29T13:13:11;1.10;;;0.82;;
41759;SDS011;27438;53.396;-6.670;2022-07-29T13:15:39;2.25;;;0.95;;
41759;SDS011;27438;53.396;-6.670;2022-07-29T13:18:26;1.48;;;0.80;;
41759;SDS011;27438;53.396;-6.670;2022-07-29T13:20:56;2.33;;;0.73;;
41759;SDS011;27438;53.396;-6.670;2022-07-29T13:23:34;0.95;;;0.80;;
41759;SDS011;27438;53.396;-6.670;2022-07-29T13:26:10;1.25;;;0.60;;
41759;SDS011;27438;53.396;-6.670;2022-07-29T13:28:41;4.13;;;0.70;;
41759;SDS011;27438;53.396;-6.670;2022-07-29T13:31:06;2.28;;;0.70;;
41759;SDS011;27438;53.396;-6.670;2022-07-29T13:33:32;1.52;;;0.65;;
41759;SDS011;27438;53.396;-6.670;2022-07-29T13:35:59;0.75;;;0.63;;
41759;SDS011;27438;53.396;-6.670;2022-07-29T13:38:25;0.80;;;0.73;;
41759;SDS011;27438;53.396;-6.670;2022-07-29T13:40:52;1.50;;;0.80;;
41759;SDS011;27438;53.396;-6.670;2022-07-29T13:43:17;0.60;;;0.60;;
41759;SDS011;27438;53.396;-6.670;2022-07-29T13:45:43;1.98;;;0.77;;
41759;SDS011;27438;53.396;-6.670;2022-07-29T13:48:09;1.25;;;0.70;;
41759;SDS011;27438;53.396;-6.670;2022-07-29T13:50:34;1.23;;;1.00;;
41759;SDS011;27438;53.396;-6.670;2022-07-29T13:53:00;1.50;;;0.70;;
41759;SDS011;27438;53.396;-6.670;2022-07-29T13:55:26;0.68;;;0.60;;
41759;SDS011;27438;53.396;-6.670;2022-07-29T13:57:51;1.50;;;0.70;;
41759;SDS011;27438;53.396;-6.670;2022-07-29T14:00:17;1.35;;;0.73;;
41759;SDS011;27438;53.396;-6.670;2022-07-29T14:02:44;1.33;;;0.90;;
41759;SDS011;27438;53.396;-6.670;2022-07-29T14:05:10;2.00;;;0.82;;
41759;SDS011;27438;53.396;-6.670;2022-07-29T14:07:37;1.48;;;0.77;;
41759;SDS011;27438;53.396;-6.670;2022-07-29T14:10:03;1.27;;;0.70;;
41759;SDS011;27438;53.396;-6.670;2022-07-29T14:12:30;1.27;;;0.68;;
41759;SDS011;27438;53.396;-6.670;2022-07-29T14:14:55;1.75;;;0.63;;
41759;SDS011;27438;53.396;-6.670;2022-07-29T14:17:21;1.13;;;0.60;;
41759;SDS011;27438;53.396;-6.670;2022-07-29T14:19:47;1.10;;;0.70;;
41759;SDS011;27438;53.396;-6.670;2022-07-29T14:22:14;3.10;;;0.70;;
41759;SDS011;27438;53.396;-6.670;2022-07-29T14:24:39;5.03;;;1.00;;
41759;SDS011;27438;53.396;-6.670;2022-07-29T14:27:06;1.98;;;0.80;;
41759;SDS011;27438;53.396;-6.670;2022-07-29T14:29:32;1.52;;;0.73;;
41759;SDS011;27438;53.396;-6.670;2022-07-29T14:31:58;1.98;;;0.77;;
41759;SDS011;27438;53.396;-6.670;2022-07-29T14:34:24;1.45;;;1.00;;
41759;SDS011;27438;53.396;-6.670;2022-07-29T14:36:49;1.42;;;0.80;;
41759;SDS011;27438;53.396;-6.670;2022-07-29T14:39:15;2.20;;;1.05;;
41759;SDS011;27438;53.396;-6.670;2022-07-29T14:41:41;3.08;;;0.93;;
41759;SDS011;27438;53.396;-6.670;2022-07-29T14:44:07;2.63;;;1.02;;
41759;SDS011;27438;53.396;-6.670;2022-07-29T14:46:33;1.40;;;0.73;;
41759;SDS011;27438;53.396;-6.670;2022-07-29T14:48:59;2.78;;;0.93;;
41759;SDS011;27438;53.396;-6.670;2022-07-29T14:51:25;0.73;;;0.60;;
41759;SDS011;27438;53.396;-6.670;2022-07-29T14:53:50;1.73;;;0.80;;
41759;SDS011;27438;53.396;-6.670;2022-07-29T14:56:16;4.05;;;1.00;;
41759;SDS011;27438;53.396;-6.670;2022-07-29T14:58:42;3.78;;;2.10;;
41759;SDS011;27438;53.396;-6.670;2022-07-29T15:01:08;1.63;;;0.90;;
41759;SDS011;27438;53.396;-6.670;2022-07-29T15:03:34;0.73;;;0.60;;
41759;SDS011;27438;53.396;-6.670;2022-07-29T15:05:59;0.90;;;0.60;;
41759;SDS011;27438;53.396;-6.670;2022-07-29T15:08:25;1.65;;;0.68;;
41759;SDS011;27438;53.396;-6.670;2022-07-29T15:10:53;0.85;;;0.65;;
41759;SDS011;27438;53.396;-6.670;2022-07-29T15:13:19;0.80;;;0.60;;
41759;SDS011;27438;53.396;-6.670;2022-07-29T15:15:44;3.03;;;0.60;;
41759;SDS011;27438;53.396;-6.670;2022-07-29T15:18:10;1.95;;;0.50;;
41759;SDS011;27438;53.396;-6.670;2022-07-29T15:20:36;0.57;;;0.57;;
41759;SDS011;27438;53.396;-6.670;2022-07-29T15:23:02;1.63;;;0.93;;
41759;SDS011;27438;53.396;-6.670;2022-07-29T15:25:28;1.25;;;0.77;;
41759;SDS011;27438;53.396;-6.670;2022-07-29T15:27:53;1.58;;;0.95;;
41759;SDS011;27438;53.396;-6.670;2022-07-29T15:30:19;2.08;;;0.70;;
41759;SDS011;27438;53.396;-6.670;2022-07-29T15:32:45;5.18;;;0.90;;
41759;SDS011;27438;53.396;-6.670;2022-07-29T15:35:11;0.63;;;0.63;;
41759;SDS011;27438;53.396;-6.670;2022-07-29T15:37:37;0.90;;;0.70;;
41759;SDS011;27438;53.396;-6.670;2022-07-29T15:40:04;2.42;;;0.95;;
41759;SDS011;27438;53.396;-6.670;2022-07-29T15:42:30;2.92;;;0.85;;
41759;SDS011;27438;53.396;-6.670;2022-07-29T15:44:56;1.35;;;0.90;;
41759;SDS011;27438;53.396;-6.670;2022-07-29T15:47:22;2.15;;;0.70;;
41759;SDS011;27438;53.396;-6.670;2022-07-29T15:49:48;0.63;;;0.63;;
41759;SDS011;27438;53.396;-6.670;2022-07-29T15:52:14;4.95;;;1.00;;
41759;SDS011;27438;53.396;-6.670;2022-07-29T15:54:44;1.40;;;0.70;;